sensor_id;sensor_type;location;lat;lon;timestamp;P1;durP1;ratioP1;P2;durP2;ratioP2
79668;SDS011;69136;52.614;6.976;2024-01-30T00:02:25;13.40;;;7.80;;
79668;SDS011;69136;52.614;6.976;2024-01-30T00:05:09;11.65;;;6.97;;
79668;SDS011;69136;52.614;6.976;2024-01-30T00:10:37;10.68;;;6.95;;
79668;SDS011;69136;52.614;6.976;2024-01-30T00:13:21;11.18;;;6.90;;
79668;SDS011;69136;52.614;6.976;2024-01-30T00:16:06;14.35;;;7.07;;
79668;SDS011;69136;52.614;6.976;2024-01-30T00:18:54;11.07;;;7.32;;
79668;SDS011;69136;52.614;6.976;2024-01-30T00:21:38;13.32;;;8.45;;
79668;SDS011;69136;52.614;6.976;2024-01-30T00:24:22;13.27;;;7.95;;
79668;SDS011;69136;52.614;6.976;2024-01-30T00:27:06;11.93;;;7.20;;
79668;SDS011;69136;52.614;6.976;2024-01-30T00:29:50;14.38;;;8.30;;
79668;SDS011;69136;52.614;6.976;2024-01-30T00:32:33;13.00;;;7.50;;
79668;SDS011;69136;52.614;6.976;2024-01-30T00:35:17;10.30;;;6.90;;
79668;SDS011;69136;52.614;6.976;2024-01-30T00:38:02;10.60;;;6.88;;
79668;SDS011;69136;52.614;6.976;2024-01-30T00:49:55;11.57;;;6.75;;
79668;SDS011;69136;52.614;6.976;2024-01-30T00:52:39;11.75;;;7.95;;
79668;SDS011;69136;52.614;6.976;2024-01-30T00:55:25;13.45;;;7.55;;
79668;SDS011;69136;52.614;6.976;2024-01-30T00:58:09;10.63;;;7.25;;
79668;SDS011;69136;52.614;6.976;2024-01-30T01:03:37;14.98;;;8.00;;
79668;SDS011;69136;52.614;6.976;2024-01-30T01:06:21;13.48;;;8.15;;
79668;SDS011;69136;52.614;6.976;2024-01-30T01:09:06;10.95;;;7.55;;
79668;SDS011;69136;52.614;6.976;2024-01-30T01:11:50;11.90;;;7.90;;
79668;SDS011;69136;52.614;6.976;2024-01-30T01:17:20;12.15;;;7.57;;
79668;SDS011;69136;52.614;6.976;2024-01-30T01:20:05;11.45;;;7.82;;
79668;SDS011;69136;52.614;6.976;2024-01-30T01:22:50;13.82;;;8.20;;
79668;SDS011;69136;52.614;6.976;2024-01-30T01:25:36;14.10;;;7.47;;
79668;SDS011;69136;52.614;6.976;2024-01-30T01:31:04;13.82;;;7.45;;
79668;SDS011;69136;52.614;6.976;2024-01-30T01:33:49;13.27;;;7.30;;
79668;SDS011;69136;52.614;6.976;2024-01-30T01:36:33;11.75;;;7.03;;
79668;SDS011;69136;52.614;6.976;2024-01-30T01:39:17;12.40;;;7.28;;
79668;SDS011;69136;52.614;6.976;2024-01-30T01:42:02;15.00;;;7.50;;
79668;SDS011;69136;52.614;6.976;2024-01-30T01:44:46;14.57;;;7.85;;
79668;SDS011;69136;52.614;6.976;2024-01-30T01:47:30;11.80;;;7.72;;
79668;SDS011;69136;52.614;6.976;2024-01-30T01:50:15;14.13;;;7.68;;
79668;SDS011;69136;52.614;6.976;2024-01-30T01:53:02;13.93;;;7.38;;
79668;SDS011;69136;52.614;6.976;2024-01-30T01:55:47;11.45;;;7.40;;
79668;SDS011;69136;52.614;6.976;2024-01-30T01:58:32;12.05;;;7.47;;
79668;SDS011;69136;52.614;6.976;2024-01-30T02:01:18;14.27;;;7.85;;
79668;SDS011;69136;52.614;6.976;2024-01-30T02:04:03;11.82;;;7.22;;
79668;SDS011;69136;52.614;6.976;2024-01-30T02:06:47;14.07;;;7.95;;
79668;SDS011;69136;52.614;6.976;2024-01-30T02:12:16;11.15;;;7.20;;
79668;SDS011;69136;52.614;6.976;2024-01-30T02:15:00;13.73;;;7.88;;
79668;SDS011;69136;52.614;6.976;2024-01-30T02:17:45;11.60;;;8.30;;
79668;SDS011;69136;52.614;6.976;2024-01-30T02:20:29;14.30;;;8.70;;
79668;SDS011;69136;52.614;6.976;2024-01-30T02:23:15;13.77;;;8.07;;
79668;SDS011;69136;52.614;6.976;2024-01-30T02:25:59;11.32;;;7.85;;
79668;SDS011;69136;52.614;6.976;2024-01-30T02:28:44;11.70;;;7.45;;
79668;SDS011;69136;52.614;6.976;2024-01-30T02:31:28;11.57;;;7.63;;
79668;SDS011;69136;52.614;6.976;2024-01-30T02:34:13;14.45;;;7.72;;
79668;SDS011;69136;52.614;6.976;2024-01-30T02:36:58;12.25;;;7.82;;
79668;SDS011;69136;52.614;6.976;2024-01-30T02:42:26;10.40;;;7.25;;
79668;SDS011;69136;52.614;6.976;2024-01-30T02:45:11;11.43;;;6.88;;
79668;SDS011;69136;52.614;6.976;2024-01-30T02:47:56;11.65;;;7.32;;
79668;SDS011;69136;52.614;6.976;2024-01-30T02:50:40;12.65;;;6.75;;
79668;SDS011;69136;52.614;6.976;2024-01-30T02:53:24;12.43;;;7.95;;
79668;SDS011;69136;52.614;6.976;2024-01-30T02:56:09;11.95;;;7.13;;
79668;SDS011;69136;52.614;6.976;2024-01-30T02:58:54;12.38;;;7.47;;
79668;SDS011;69136;52.614;6.976;2024-01-30T03:01:42;14.98;;;7.80;;
79668;SDS011;69136;52.614;6.976;2024-01-30T03:04:27;12.85;;;7.97;;
79668;SDS011;69136;52.614;6.976;2024-01-30T03:07:14;10.30;;;7.13;;
79668;SDS011;69136;52.614;6.976;2024-01-30T03:09:58;12.10;;;7.50;;
79668;SDS011;69136;52.614;6.976;2024-01-30T03:12:43;10.80;;;7.35;;
79668;SDS011;69136;52.614;6.976;2024-01-30T03:15:27;12.98;;;7.70;;
79668;SDS011;69136;52.614;6.976;2024-01-30T03:18:11;11.82;;;7.82;;
79668;SDS011;69136;52.614;6.976;2024-01-30T03:20:56;13.07;;;7.97;;
79668;SDS011;69136;52.614;6.976;2024-01-30T03:23:40;12.40;;;8.07;;
79668;SDS011;69136;52.614;6.976;2024-01-30T03:29:08;14.88;;;7.90;;
79668;SDS011;69136;52.614;6.976;2024-01-30T03:31:52;12.43;;;8.05;;
79668;SDS011;69136;52.614;6.976;2024-01-30T03:34:37;11.90;;;7.18;;
79668;SDS011;69136;52.614;6.976;2024-01-30T03:37:21;13.35;;;7.90;;
79668;SDS011;69136;52.614;6.976;2024-01-30T03:40:06;13.60;;;8.27;;
79668;SDS011;69136;52.614;6.976;2024-01-30T03:42:52;14.98;;;8.95;;
79668;SDS011;69136;52.614;6.976;2024-01-30T03:45:36;13.68;;;8.38;;
79668;SDS011;69136;52.614;6.976;2024-01-30T03:48:20;14.02;;;8.88;;
79668;SDS011;69136;52.614;6.976;2024-01-30T03:51:05;11.10;;;7.57;;
79668;SDS011;69136;52.614;6.976;2024-01-30T03:53:49;14.45;;;8.65;;
79668;SDS011;69136;52.614;6.976;2024-01-30T03:59:17;14.43;;;8.43;;
79668;SDS011;69136;52.614;6.976;2024-01-30T04:02:07;10.80;;;7.80;;
79668;SDS011;69136;52.614;6.976;2024-01-30T04:04:51;14.20;;;8.27;;
79668;SDS011;69136;52.614;6.976;2024-01-30T04:07:35;15.13;;;8.68;;
79668;SDS011;69136;52.614;6.976;2024-01-30T04:10:19;14.43;;;8.60;;
79668;SDS011;69136;52.614;6.976;2024-01-30T04:13:04;14.23;;;7.95;;
79668;SDS011;69136;52.614;6.976;2024-01-30T04:15:48;14.57;;;8.48;;
79668;SDS011;69136;52.614;6.976;2024-01-30T04:18:33;14.30;;;7.80;;
79668;SDS011;69136;52.614;6.976;2024-01-30T04:21:18;15.98;;;8.68;;
79668;SDS011;69136;52.614;6.976;2024-01-30T04:26:46;13.98;;;7.90;;
79668;SDS011;69136;52.614;6.976;2024-01-30T04:29:30;15.57;;;8.77;;
79668;SDS011;69136;52.614;6.976;2024-01-30T04:32:16;11.23;;;7.70;;
79668;SDS011;69136;52.614;6.976;2024-01-30T04:35:00;18.17;;;9.63;;
79668;SDS011;69136;52.614;6.976;2024-01-30T04:37:45;15.77;;;9.15;;
79668;SDS011;69136;52.614;6.976;2024-01-30T04:40:30;14.52;;;9.02;;
79668;SDS011;69136;52.614;6.976;2024-01-30T04:43:14;15.23;;;9.10;;
79668;SDS011;69136;52.614;6.976;2024-01-30T04:45:59;12.55;;;8.75;;
79668;SDS011;69136;52.614;6.976;2024-01-30T04:48:44;14.90;;;8.75;;
79668;SDS011;69136;52.614;6.976;2024-01-30T04:51:28;17.38;;;9.43;;
79668;SDS011;69136;52.614;6.976;2024-01-30T04:54:14;15.55;;;9.15;;
79668;SDS011;69136;52.614;6.976;2024-01-30T04:56:58;13.90;;;8.73;;
79668;SDS011;69136;52.614;6.976;2024-01-30T04:59:43;14.57;;;8.88;;
79668;SDS011;69136;52.614;6.976;2024-01-30T05:02:27;15.73;;;10.00;;
79668;SDS011;69136;52.614;6.976;2024-01-30T05:05:12;18.77;;;9.30;;
79668;SDS011;69136;52.614;6.976;2024-01-30T05:07:57;14.05;;;8.68;;
79668;SDS011;69136;52.614;6.976;2024-01-30T05:13:25;15.23;;;8.68;;
79668;SDS011;69136;52.614;6.976;2024-01-30T05:16:09;15.27;;;9.25;;
79668;SDS011;69136;52.614;6.976;2024-01-30T05:18:53;16.15;;;8.82;;
79668;SDS011;69136;52.614;6.976;2024-01-30T05:21:38;16.58;;;9.10;;
79668;SDS011;69136;52.614;6.976;2024-01-30T05:24:22;14.52;;;8.18;;
79668;SDS011;69136;52.614;6.976;2024-01-30T05:27:07;17.10;;;9.60;;
79668;SDS011;69136;52.614;6.976;2024-01-30T05:29:51;13.27;;;8.48;;
79668;SDS011;69136;52.614;6.976;2024-01-30T05:35:19;15.23;;;8.77;;
79668;SDS011;69136;52.614;6.976;2024-01-30T05:38:05;16.23;;;9.30;;
79668;SDS011;69136;52.614;6.976;2024-01-30T05:43:33;15.75;;;9.13;;
79668;SDS011;69136;52.614;6.976;2024-01-30T05:46:17;22.77;;;9.63;;
79668;SDS011;69136;52.614;6.976;2024-01-30T05:51:45;14.88;;;8.18;;
79668;SDS011;69136;52.614;6.976;2024-01-30T05:57:13;13.93;;;8.65;;
79668;SDS011;69136;52.614;6.976;2024-01-30T05:59:58;14.20;;;8.98;;
79668;SDS011;69136;52.614;6.976;2024-01-30T06:02:42;18.95;;;9.25;;
79668;SDS011;69136;52.614;6.976;2024-01-30T06:08:11;13.40;;;8.05;;
79668;SDS011;69136;52.614;6.976;2024-01-30T06:13:39;15.55;;;8.52;;
79668;SDS011;69136;52.614;6.976;2024-01-30T06:16:23;15.70;;;8.52;;
79668;SDS011;69136;52.614;6.976;2024-01-30T06:19:07;15.43;;;9.00;;
79668;SDS011;69136;52.614;6.976;2024-01-30T06:24:35;13.45;;;8.73;;
79668;SDS011;69136;52.614;6.976;2024-01-30T06:27:20;16.60;;;10.05;;
79668;SDS011;69136;52.614;6.976;2024-01-30T06:30:05;17.20;;;9.45;;
79668;SDS011;69136;52.614;6.976;2024-01-30T06:32:50;15.57;;;9.30;;
79668;SDS011;69136;52.614;6.976;2024-01-30T06:35:34;15.95;;;9.07;;
79668;SDS011;69136;52.614;6.976;2024-01-30T06:38:20;17.98;;;9.32;;
79668;SDS011;69136;52.614;6.976;2024-01-30T06:41:04;16.42;;;8.20;;
79668;SDS011;69136;52.614;6.976;2024-01-30T06:43:49;16.17;;;8.80;;
79668;SDS011;69136;52.614;6.976;2024-01-30T06:46:33;15.75;;;8.48;;
79668;SDS011;69136;52.614;6.976;2024-01-30T06:49:18;15.98;;;8.85;;
79668;SDS011;69136;52.614;6.976;2024-01-30T06:52:02;17.10;;;9.20;;
79668;SDS011;69136;52.614;6.976;2024-01-30T06:54:47;12.57;;;8.10;;
79668;SDS011;69136;52.614;6.976;2024-01-30T06:57:31;13.02;;;7.88;;
79668;SDS011;69136;52.614;6.976;2024-01-30T07:00:16;15.85;;;8.15;;
79668;SDS011;69136;52.614;6.976;2024-01-30T07:03:00;16.00;;;8.45;;
79668;SDS011;69136;52.614;6.976;2024-01-30T07:08:28;17.20;;;9.23;;
79668;SDS011;69136;52.614;6.976;2024-01-30T07:11:18;13.13;;;8.48;;
79668;SDS011;69136;52.614;6.976;2024-01-30T07:14:06;13.52;;;8.20;;
79668;SDS011;69136;52.614;6.976;2024-01-30T07:16:51;14.57;;;8.00;;
79668;SDS011;69136;52.614;6.976;2024-01-30T07:19:36;15.23;;;7.93;;
79668;SDS011;69136;52.614;6.976;2024-01-30T07:22:21;14.30;;;7.50;;
79668;SDS011;69136;52.614;6.976;2024-01-30T07:25:05;13.70;;;8.30;;
79668;SDS011;69136;52.614;6.976;2024-01-30T07:27:50;14.13;;;8.38;;
79668;SDS011;69136;52.614;6.976;2024-01-30T07:30:34;18.02;;;9.18;;
79668;SDS011;69136;52.614;6.976;2024-01-30T07:33:19;14.48;;;8.20;;
79668;SDS011;69136;52.614;6.976;2024-01-30T07:36:13;17.38;;;8.88;;
79668;SDS011;69136;52.614;6.976;2024-01-30T07:38:57;14.52;;;8.93;;
79668;SDS011;69136;52.614;6.976;2024-01-30T07:41:41;15.77;;;8.15;;
79668;SDS011;69136;52.614;6.976;2024-01-30T07:44:27;16.95;;;8.45;;
79668;SDS011;69136;52.614;6.976;2024-01-30T07:47:11;14.45;;;8.38;;
79668;SDS011;69136;52.614;6.976;2024-01-30T07:49:55;16.20;;;7.93;;
79668;SDS011;69136;52.614;6.976;2024-01-30T07:52:40;16.67;;;8.80;;
79668;SDS011;69136;52.614;6.976;2024-01-30T07:55:25;16.35;;;10.45;;
79668;SDS011;69136;52.614;6.976;2024-01-30T07:58:12;17.25;;;10.20;;
79668;SDS011;69136;52.614;6.976;2024-01-30T08:00:57;16.33;;;9.38;;
79668;SDS011;69136;52.614;6.976;2024-01-30T08:03:42;15.15;;;8.57;;
79668;SDS011;69136;52.614;6.976;2024-01-30T08:06:27;15.35;;;8.77;;
79668;SDS011;69136;52.614;6.976;2024-01-30T08:09:11;15.88;;;9.07;;
79668;SDS011;69136;52.614;6.976;2024-01-30T08:11:56;16.50;;;8.77;;
79668;SDS011;69136;52.614;6.976;2024-01-30T08:17:25;16.00;;;8.25;;
79668;SDS011;69136;52.614;6.976;2024-01-30T08:20:09;12.40;;;8.07;;
79668;SDS011;69136;52.614;6.976;2024-01-30T08:22:55;12.80;;;8.05;;
79668;SDS011;69136;52.614;6.976;2024-01-30T08:25:39;14.45;;;8.13;;
79668;SDS011;69136;52.614;6.976;2024-01-30T08:28:24;13.60;;;7.65;;
79668;SDS011;69136;52.614;6.976;2024-01-30T08:31:10;15.15;;;8.23;;
79668;SDS011;69136;52.614;6.976;2024-01-30T08:33:55;15.80;;;7.97;;
79668;SDS011;69136;52.614;6.976;2024-01-30T08:36:40;14.35;;;8.80;;
79668;SDS011;69136;52.614;6.976;2024-01-30T08:39:25;12.85;;;8.10;;
79668;SDS011;69136;52.614;6.976;2024-01-30T08:42:09;15.57;;;8.68;;
79668;SDS011;69136;52.614;6.976;2024-01-30T08:44:54;14.40;;;7.80;;
79668;SDS011;69136;52.614;6.976;2024-01-30T08:47:40;16.05;;;7.65;;
79668;SDS011;69136;52.614;6.976;2024-01-30T08:50:24;14.98;;;8.25;;
79668;SDS011;69136;52.614;6.976;2024-01-30T08:55:53;12.48;;;7.10;;
79668;SDS011;69136;52.614;6.976;2024-01-30T09:01:21;12.27;;;7.28;;
79668;SDS011;69136;52.614;6.976;2024-01-30T09:04:05;10.85;;;6.22;;
79668;SDS011;69136;52.614;6.976;2024-01-30T09:06:49;12.48;;;7.60;;
79668;SDS011;69136;52.614;6.976;2024-01-30T09:09:34;12.85;;;7.50;;
79668;SDS011;69136;52.614;6.976;2024-01-30T09:12:18;12.23;;;7.05;;
79668;SDS011;69136;52.614;6.976;2024-01-30T09:15:02;16.73;;;7.47;;
79668;SDS011;69136;52.614;6.976;2024-01-30T09:17:47;12.75;;;8.00;;
79668;SDS011;69136;52.614;6.976;2024-01-30T09:20:31;14.30;;;7.22;;
79668;SDS011;69136;52.614;6.976;2024-01-30T09:23:16;11.70;;;7.55;;
79668;SDS011;69136;52.614;6.976;2024-01-30T09:26:02;13.05;;;7.00;;
79668;SDS011;69136;52.614;6.976;2024-01-30T09:28:47;13.80;;;7.28;;
79668;SDS011;69136;52.614;6.976;2024-01-30T09:31:31;15.30;;;7.75;;
79668;SDS011;69136;52.614;6.976;2024-01-30T09:34:16;14.57;;;7.70;;
79668;SDS011;69136;52.614;6.976;2024-01-30T09:37:00;12.15;;;7.68;;
79668;SDS011;69136;52.614;6.976;2024-01-30T09:39:45;13.82;;;7.13;;
79668;SDS011;69136;52.614;6.976;2024-01-30T09:42:35;13.15;;;6.93;;
79668;SDS011;69136;52.614;6.976;2024-01-30T09:45:23;12.77;;;6.72;;
79668;SDS011;69136;52.614;6.976;2024-01-30T09:48:09;17.08;;;7.28;;
79668;SDS011;69136;52.614;6.976;2024-01-30T09:50:53;11.82;;;7.13;;
79668;SDS011;69136;52.614;6.976;2024-01-30T09:53:38;15.30;;;6.60;;
79668;SDS011;69136;52.614;6.976;2024-01-30T09:56:23;12.38;;;7.50;;
79668;SDS011;69136;52.614;6.976;2024-01-30T09:59:07;14.40;;;8.00;;
79668;SDS011;69136;52.614;6.976;2024-01-30T10:01:51;11.15;;;6.38;;
79668;SDS011;69136;52.614;6.976;2024-01-30T10:04:36;11.93;;;7.28;;
79668;SDS011;69136;52.614;6.976;2024-01-30T10:07:20;11.60;;;6.57;;
79668;SDS011;69136;52.614;6.976;2024-01-30T10:10:05;12.27;;;6.95;;
79668;SDS011;69136;52.614;6.976;2024-01-30T10:12:50;11.48;;;6.72;;
79668;SDS011;69136;52.614;6.976;2024-01-30T10:15:35;14.32;;;7.35;;
79668;SDS011;69136;52.614;6.976;2024-01-30T10:18:23;11.88;;;6.97;;
79668;SDS011;69136;52.614;6.976;2024-01-30T10:21:08;13.75;;;6.75;;
79668;SDS011;69136;52.614;6.976;2024-01-30T10:23:53;12.05;;;6.05;;
79668;SDS011;69136;52.614;6.976;2024-01-30T10:26:37;12.57;;;6.95;;
79668;SDS011;69136;52.614;6.976;2024-01-30T10:29:22;10.82;;;6.65;;
79668;SDS011;69136;52.614;6.976;2024-01-30T10:32:06;15.63;;;6.90;;
79668;SDS011;69136;52.614;6.976;2024-01-30T10:34:51;14.88;;;6.97;;
79668;SDS011;69136;52.614;6.976;2024-01-30T10:37:35;14.82;;;7.20;;
79668;SDS011;69136;52.614;6.976;2024-01-30T10:40:20;13.45;;;6.28;;
79668;SDS011;69136;52.614;6.976;2024-01-30T10:43:05;16.50;;;6.95;;
79668;SDS011;69136;52.614;6.976;2024-01-30T10:45:52;14.90;;;7.55;;
79668;SDS011;69136;52.614;6.976;2024-01-30T10:48:41;13.13;;;6.93;;
79668;SDS011;69136;52.614;6.976;2024-01-30T10:51:27;10.07;;;6.65;;
79668;SDS011;69136;52.614;6.976;2024-01-30T10:54:12;11.57;;;7.10;;
79668;SDS011;69136;52.614;6.976;2024-01-30T10:56:57;12.20;;;7.30;;
79668;SDS011;69136;52.614;6.976;2024-01-30T10:59:42;11.90;;;6.97;;
79668;SDS011;69136;52.614;6.976;2024-01-30T11:02:27;16.10;;;7.00;;
79668;SDS011;69136;52.614;6.976;2024-01-30T11:05:11;13.52;;;6.75;;
79668;SDS011;69136;52.614;6.976;2024-01-30T11:07:56;10.88;;;6.70;;
79668;SDS011;69136;52.614;6.976;2024-01-30T11:10:47;12.65;;;7.20;;
79668;SDS011;69136;52.614;6.976;2024-01-30T11:13:31;13.32;;;7.60;;
79668;SDS011;69136;52.614;6.976;2024-01-30T11:16:16;13.52;;;6.93;;
79668;SDS011;69136;52.614;6.976;2024-01-30T11:19:00;14.20;;;7.47;;
79668;SDS011;69136;52.614;6.976;2024-01-30T11:21:46;11.10;;;7.35;;
79668;SDS011;69136;52.614;6.976;2024-01-30T11:24:41;13.63;;;7.45;;
79668;SDS011;69136;52.614;6.976;2024-01-30T11:27:28;14.88;;;7.60;;
79668;SDS011;69136;52.614;6.976;2024-01-30T11:30:23;11.38;;;6.95;;
79668;SDS011;69136;52.614;6.976;2024-01-30T11:33:11;11.63;;;7.43;;
79668;SDS011;69136;52.614;6.976;2024-01-30T11:35:57;14.57;;;7.03;;
79668;SDS011;69136;52.614;6.976;2024-01-30T11:38:43;13.85;;;7.47;;
79668;SDS011;69136;52.614;6.976;2024-01-30T11:41:29;12.65;;;7.47;;
79668;SDS011;69136;52.614;6.976;2024-01-30T11:44:15;14.20;;;7.75;;
79668;SDS011;69136;52.614;6.976;2024-01-30T11:46:59;14.45;;;7.28;;
79668;SDS011;69136;52.614;6.976;2024-01-30T11:49:43;14.05;;;7.25;;
79668;SDS011;69136;52.614;6.976;2024-01-30T11:52:28;16.15;;;7.22;;
79668;SDS011;69136;52.614;6.976;2024-01-30T11:55:13;12.38;;;6.90;;
79668;SDS011;69136;52.614;6.976;2024-01-30T11:57:58;13.30;;;7.38;;
79668;SDS011;69136;52.614;6.976;2024-01-30T12:00:42;12.32;;;7.00;;
79668;SDS011;69136;52.614;6.976;2024-01-30T12:03:27;13.75;;;7.78;;
79668;SDS011;69136;52.614;6.976;2024-01-30T12:06:12;17.42;;;7.78;;
79668;SDS011;69136;52.614;6.976;2024-01-30T12:09:00;15.40;;;7.60;;
79668;SDS011;69136;52.614;6.976;2024-01-30T12:11:48;17.20;;;8.52;;
79668;SDS011;69136;52.614;6.976;2024-01-30T12:14:33;15.30;;;7.60;;
79668;SDS011;69136;52.614;6.976;2024-01-30T12:17:27;14.45;;;8.48;;
79668;SDS011;69136;52.614;6.976;2024-01-30T12:20:13;12.73;;;7.35;;
79668;SDS011;69136;52.614;6.976;2024-01-30T12:22:58;14.38;;;7.05;;
79668;SDS011;69136;52.614;6.976;2024-01-30T12:25:42;11.02;;;6.78;;
79668;SDS011;69136;52.614;6.976;2024-01-30T12:28:27;13.05;;;7.05;;
79668;SDS011;69136;52.614;6.976;2024-01-30T12:31:11;13.35;;;7.03;;
79668;SDS011;69136;52.614;6.976;2024-01-30T12:33:56;14.13;;;7.50;;
79668;SDS011;69136;52.614;6.976;2024-01-30T12:36:43;11.02;;;7.07;;
79668;SDS011;69136;52.614;6.976;2024-01-30T12:39:27;11.55;;;6.95;;
79668;SDS011;69136;52.614;6.976;2024-01-30T12:42:12;12.88;;;7.05;;
79668;SDS011;69136;52.614;6.976;2024-01-30T12:44:59;13.77;;;6.88;;
79668;SDS011;69136;52.614;6.976;2024-01-30T12:47:44;13.50;;;6.85;;
79668;SDS011;69136;52.614;6.976;2024-01-30T12:50:28;11.02;;;6.20;;
79668;SDS011;69136;52.614;6.976;2024-01-30T12:53:12;13.10;;;6.90;;
79668;SDS011;69136;52.614;6.976;2024-01-30T12:55:57;10.75;;;6.40;;
79668;SDS011;69136;52.614;6.976;2024-01-30T12:58:41;14.73;;;6.95;;
79668;SDS011;69136;52.614;6.976;2024-01-30T13:01:27;14.20;;;6.88;;
79668;SDS011;69136;52.614;6.976;2024-01-30T13:04:11;12.07;;;7.28;;
79668;SDS011;69136;52.614;6.976;2024-01-30T13:06:56;14.40;;;7.75;;
79668;SDS011;69136;52.614;6.976;2024-01-30T13:09:40;11.90;;;6.68;;
79668;SDS011;69136;52.614;6.976;2024-01-30T13:12:24;11.40;;;6.53;;
79668;SDS011;69136;52.614;6.976;2024-01-30T13:15:08;11.02;;;5.78;;
79668;SDS011;69136;52.614;6.976;2024-01-30T13:17:54;12.68;;;6.50;;
79668;SDS011;69136;52.614;6.976;2024-01-30T13:20:42;10.77;;;6.55;;
79668;SDS011;69136;52.614;6.976;2024-01-30T13:23:41;11.32;;;6.53;;
79668;SDS011;69136;52.614;6.976;2024-01-30T13:26:27;14.25;;;7.10;;
79668;SDS011;69136;52.614;6.976;2024-01-30T13:46:31;8.80;;;5.30;;
79668;SDS011;69136;52.614;6.976;2024-01-30T13:49:16;7.88;;;5.18;;
79668;SDS011;69136;52.614;6.976;2024-01-30T13:54:58;9.20;;;5.85;;
79668;SDS011;69136;52.614;6.976;2024-01-30T13:57:46;8.65;;;5.28;;
79668;SDS011;69136;52.614;6.976;2024-01-30T14:00:35;8.77;;;5.25;;
79668;SDS011;69136;52.614;6.976;2024-01-30T14:03:19;6.45;;;4.35;;
79668;SDS011;69136;52.614;6.976;2024-01-30T14:06:04;7.72;;;4.90;;
79668;SDS011;69136;52.614;6.976;2024-01-30T14:08:49;8.98;;;5.07;;
79668;SDS011;69136;52.614;6.976;2024-01-30T14:11:34;10.40;;;4.63;;
79668;SDS011;69136;52.614;6.976;2024-01-30T14:14:19;10.90;;;5.22;;
79668;SDS011;69136;52.614;6.976;2024-01-30T14:20:29;7.45;;;3.50;;
79668;SDS011;69136;52.614;6.976;2024-01-30T14:23:19;5.40;;;3.47;;
79668;SDS011;69136;52.614;6.976;2024-01-30T14:26:04;6.45;;;2.92;;
79668;SDS011;69136;52.614;6.976;2024-01-30T14:31:42;6.53;;;1.95;;
79668;SDS011;69136;52.614;6.976;2024-01-30T14:34:27;5.13;;;1.70;;
79668;SDS011;69136;52.614;6.976;2024-01-30T14:37:15;2.97;;;1.60;;
79668;SDS011;69136;52.614;6.976;2024-01-30T14:42:55;5.80;;;2.55;;
79668;SDS011;69136;52.614;6.976;2024-01-30T14:45:40;12.15;;;4.78;;
79668;SDS011;69136;52.614;6.976;2024-01-30T14:48:25;4.13;;;2.35;;
79668;SDS011;69136;52.614;6.976;2024-01-30T14:51:09;2.95;;;2.08;;
79668;SDS011;69136;52.614;6.976;2024-01-30T14:53:55;5.05;;;2.40;;
79668;SDS011;69136;52.614;6.976;2024-01-30T14:56:39;3.13;;;2.10;;
79668;SDS011;69136;52.614;6.976;2024-01-30T14:59:24;4.80;;;2.05;;
79668;SDS011;69136;52.614;6.976;2024-01-30T15:02:08;11.40;;;5.88;;
79668;SDS011;69136;52.614;6.976;2024-01-30T15:04:53;3.42;;;1.83;;
79668;SDS011;69136;52.614;6.976;2024-01-30T15:07:37;2.03;;;1.83;;
79668;SDS011;69136;52.614;6.976;2024-01-30T15:10:22;5.72;;;2.17;;
79668;SDS011;69136;52.614;6.976;2024-01-30T15:13:06;4.65;;;3.80;;
79668;SDS011;69136;52.614;6.976;2024-01-30T15:15:50;4.30;;;2.45;;
79668;SDS011;69136;52.614;6.976;2024-01-30T15:18:34;2.88;;;2.20;;
79668;SDS011;69136;52.614;6.976;2024-01-30T15:21:18;3.22;;;2.50;;
79668;SDS011;69136;52.614;6.976;2024-01-30T15:24:06;4.13;;;2.00;;
79668;SDS011;69136;52.614;6.976;2024-01-30T15:26:51;3.80;;;2.80;;
79668;SDS011;69136;52.614;6.976;2024-01-30T15:29:35;4.80;;;2.13;;
79668;SDS011;69136;52.614;6.976;2024-01-30T15:32:20;5.80;;;2.58;;
79668;SDS011;69136;52.614;6.976;2024-01-30T15:35:04;2.83;;;1.90;;
79668;SDS011;69136;52.614;6.976;2024-01-30T15:37:49;2.45;;;1.70;;
79668;SDS011;69136;52.614;6.976;2024-01-30T15:40:34;2.53;;;1.70;;
79668;SDS011;69136;52.614;6.976;2024-01-30T15:43:18;2.35;;;1.60;;
79668;SDS011;69136;52.614;6.976;2024-01-30T15:46:03;9.80;;;5.22;;
79668;SDS011;69136;52.614;6.976;2024-01-30T15:48:47;9.50;;;4.70;;
79668;SDS011;69136;52.614;6.976;2024-01-30T15:51:32;33.55;;;14.20;;
79668;SDS011;69136;52.614;6.976;2024-01-30T15:54:16;2.45;;;1.65;;
79668;SDS011;69136;52.614;6.976;2024-01-30T15:57:01;3.22;;;1.92;;
79668;SDS011;69136;52.614;6.976;2024-01-30T15:59:45;3.15;;;1.88;;
79668;SDS011;69136;52.614;6.976;2024-01-30T16:02:30;3.45;;;2.17;;
79668;SDS011;69136;52.614;6.976;2024-01-30T16:05:14;4.47;;;2.50;;
79668;SDS011;69136;52.614;6.976;2024-01-30T16:07:58;3.63;;;2.65;;
79668;SDS011;69136;52.614;6.976;2024-01-30T16:10:43;5.20;;;2.55;;
79668;SDS011;69136;52.614;6.976;2024-01-30T16:13:27;3.72;;;2.50;;
79668;SDS011;69136;52.614;6.976;2024-01-30T16:16:11;3.85;;;1.73;;
79668;SDS011;69136;52.614;6.976;2024-01-30T16:18:55;5.22;;;2.60;;
79668;SDS011;69136;52.614;6.976;2024-01-30T16:21:39;13.07;;;5.18;;
79668;SDS011;69136;52.614;6.976;2024-01-30T16:24:27;5.63;;;2.50;;
79668;SDS011;69136;52.614;6.976;2024-01-30T16:27:11;4.43;;;1.90;;
79668;SDS011;69136;52.614;6.976;2024-01-30T16:29:56;4.10;;;2.13;;
79668;SDS011;69136;52.614;6.976;2024-01-30T16:32:40;2.67;;;2.03;;
79668;SDS011;69136;52.614;6.976;2024-01-30T16:35:24;2.38;;;2.00;;
79668;SDS011;69136;52.614;6.976;2024-01-30T16:38:08;3.58;;;2.22;;
79668;SDS011;69136;52.614;6.976;2024-01-30T16:40:53;5.32;;;3.70;;
79668;SDS011;69136;52.614;6.976;2024-01-30T16:43:37;4.32;;;2.88;;
79668;SDS011;69136;52.614;6.976;2024-01-30T16:46:21;3.20;;;1.83;;
79668;SDS011;69136;52.614;6.976;2024-01-30T16:49:06;2.40;;;1.98;;
79668;SDS011;69136;52.614;6.976;2024-01-30T16:51:50;5.25;;;2.58;;
79668;SDS011;69136;52.614;6.976;2024-01-30T16:57:18;2.70;;;1.83;;
79668;SDS011;69136;52.614;6.976;2024-01-30T17:02:47;3.08;;;2.20;;
79668;SDS011;69136;52.614;6.976;2024-01-30T17:05:31;3.78;;;2.40;;
79668;SDS011;69136;52.614;6.976;2024-01-30T17:08:15;3.08;;;2.08;;
79668;SDS011;69136;52.614;6.976;2024-01-30T17:11:00;3.42;;;2.20;;
79668;SDS011;69136;52.614;6.976;2024-01-30T17:13:44;5.88;;;1.98;;
79668;SDS011;69136;52.614;6.976;2024-01-30T17:16:29;3.63;;;2.15;;
79668;SDS011;69136;52.614;6.976;2024-01-30T17:19:13;4.25;;;2.15;;
79668;SDS011;69136;52.614;6.976;2024-01-30T17:21:59;4.25;;;2.20;;
79668;SDS011;69136;52.614;6.976;2024-01-30T17:24:43;3.75;;;2.58;;
79668;SDS011;69136;52.614;6.976;2024-01-30T17:27:28;4.45;;;2.60;;
79668;SDS011;69136;52.614;6.976;2024-01-30T17:30:12;5.47;;;3.08;;
79668;SDS011;69136;52.614;6.976;2024-01-30T17:32:58;5.43;;;2.90;;
79668;SDS011;69136;52.614;6.976;2024-01-30T17:35:43;4.38;;;2.95;;
79668;SDS011;69136;52.614;6.976;2024-01-30T17:38:27;5.20;;;3.00;;
79668;SDS011;69136;52.614;6.976;2024-01-30T17:41:13;4.70;;;3.42;;
79668;SDS011;69136;52.614;6.976;2024-01-30T17:43:57;5.07;;;3.35;;
79668;SDS011;69136;52.614;6.976;2024-01-30T17:46:41;7.30;;;3.50;;
79668;SDS011;69136;52.614;6.976;2024-01-30T17:49:26;8.45;;;3.90;;
79668;SDS011;69136;52.614;6.976;2024-01-30T17:52:13;28.60;;;13.50;;
79668;SDS011;69136;52.614;6.976;2024-01-30T17:54:58;6.70;;;4.22;;
79668;SDS011;69136;52.614;6.976;2024-01-30T17:57:42;6.95;;;3.72;;
79668;SDS011;69136;52.614;6.976;2024-01-30T18:00:27;5.60;;;3.90;;
79668;SDS011;69136;52.614;6.976;2024-01-30T18:03:11;8.00;;;4.68;;
79668;SDS011;69136;52.614;6.976;2024-01-30T18:05:56;7.30;;;4.00;;